Time;durP1;ratioP1;P1;durP2;ratioP2;P2;SDS_P1;SDS_P2;PMS_P1;PMS_P2;Temp;Humidity;BMP_temperature;BMP_pressure;BME280_temperature;BME280_humidity;BME280_pressure;Samples;Min_cycle;Max_cycle;Signal;HPM_P1;HPM_P2
2022/03/16 00:01:23;;;;;;;23.02;7.43;;;10.20;99.90;;;;;;5197095;28;20045;-80
2022/03/16 00:03:56;;;;;;;19.90;7.35;;;10.20;99.90;;;;;;5205160;28;20036;-79
2022/03/16 00:06:28;;;;;;;20.38;7.45;;;10.20;99.90;;;;;;5211031;28;20049;-78
2022/03/16 00:09:00;;;;;;;16.45;6.50;;;10.20;99.90;;;;;;5208157;28;20064;-80
2022/03/16 00:11:33;;;;;;;18.67;7.18;;;10.20;99.90;;;;;;5207290;28;20076;-78
2022/03/16 00:14:05;;;;;;;26.73;6.80;;;10.30;99.90;;;;;;5206193;28;20048;-79
2022/03/16 00:16:37;;;;;;;28.33;8.32;;;10.20;99.90;;;;;;5202492;28;20045;-78
2022/03/16 00:19:10;;;;;;;24.98;8.43;;;10.20;99.90;;;;;;5202951;28;20166;-78
2022/03/16 00:21:42;;;;;;;18.15;7.93;;;10.20;99.90;;;;;;5220301;28;20052;-78
2022/03/16 00:24:15;;;;;;;18.63;8.50;;;10.20;99.90;;;;;;5210488;28;20052;-79
2022/03/16 00:26:47;;;;;;;24.38;8.07;;;10.20;99.90;;;;;;5179514;28;20053;-79
2022/03/16 00:29:19;;;;;;;18.85;8.43;;;10.30;99.90;;;;;;5216015;28;20048;-79
2022/03/16 00:31:52;;;;;;;19.17;9.32;;;10.30;99.90;;;;;;5208531;28;21793;-78
2022/03/16 00:34:25;;;;;;;28.15;9.35;;;10.20;99.90;;;;;;5201122;28;20483;-78
2022/03/16 00:36:58;;;;;;;27.55;8.70;;;10.20;99.90;;;;;;5194834;28;20330;-79
2022/03/16 00:39:31;;;;;;;21.13;9.35;;;10.20;99.90;;;;;;5198155;28;20150;-78
2022/03/16 00:42:04;;;;;;;33.25;9.30;;;10.10;99.90;;;;;;5198925;28;20045;-79
2022/03/16 00:44:36;;;;;;;28.30;12.00;;;10.00;99.90;;;;;;5200818;28;20044;-78
2022/03/16 00:47:09;;;;;;;21.45;10.40;;;10.00;99.90;;;;;;5200327;28;20045;-79
2022/03/16 00:49:41;;;;;;;24.08;10.18;;;9.90;99.90;;;;;;5213628;28;20500;-77
2022/03/16 00:52:14;;;;;;;26.35;11.38;;;9.90;99.90;;;;;;5217674;28;20060;-80
2022/03/16 00:54:46;;;;;;;26.85;10.82;;;9.90;99.90;;;;;;5181711;28;20068;-79
2022/03/16 00:57:19;;;;;;;34.88;12.48;;;9.90;99.90;;;;;;5199325;28;20503;-79
2022/03/16 00:59:51;;;;;;;30.95;13.07;;;9.90;99.90;;;;;;5196782;28;20041;-78
2022/03/16 01:02:24;;;;;;;25.88;11.88;;;9.90;99.90;;;;;;5186923;28;20267;-79
2022/03/16 01:04:57;;;;;;;28.67;12.88;;;9.80;99.90;;;;;;5182189;28;20494;-79
2022/03/16 01:07:30;;;;;;;25.05;12.85;;;9.70;99.90;;;;;;5182557;28;20513;-79
2022/03/16 01:10:04;;;;;;;33.03;14.18;;;9.70;99.90;;;;;;5202155;28;20055;-78
2022/03/16 01:12:36;;;;;;;27.90;14.88;;;9.70;99.90;;;;;;5206533;28;20644;-79
2022/03/16 01:15:09;;;;;;;31.43;14.23;;;9.80;99.90;;;;;;5197812;28;20048;-79
2022/03/16 01:17:41;;;;;;;26.13;13.85;;;9.70;99.90;;;;;;5202538;28;20045;-78
2022/03/16 01:20:14;;;;;;;26.95;14.75;;;9.70;99.90;;;;;;5204797;28;20053;-81
2022/03/16 01:22:46;;;;;;;27.17;14.40;;;9.70;99.90;;;;;;5211474;28;20056;-79
2022/03/16 01:25:19;;;;;;;34.00;14.73;;;9.70;99.90;;;;;;5199246;28;20049;-79
2022/03/16 01:27:52;;;;;;;34.65;16.70;;;9.70;99.90;;;;;;5192913;28;20096;-79
2022/03/16 01:30:26;;;;;;;34.72;18.05;;;9.70;99.90;;;;;;5196687;28;20049;-80
2022/03/16 01:32:59;;;;;;;36.42;21.77;;;9.70;99.90;;;;;;5195075;28;20076;-79
2022/03/16 01:35:31;;;;;;;40.13;21.73;;;9.60;99.90;;;;;;5196967;28;20041;-77
2022/03/16 01:38:03;;;;;;;35.00;21.65;;;9.60;99.90;;;;;;5199425;28;20425;-79
2022/03/16 01:40:36;;;;;;;34.70;21.60;;;9.60;99.90;;;;;;5190405;28;20053;-79
2022/03/16 01:43:08;;;;;;;31.85;20.92;;;9.60;99.90;;;;;;5209606;28;20392;-77
2022/03/16 01:45:48;;;;;;;37.25;20.85;;;9.50;99.90;;;;;;5203670;28;20049;-81
2022/03/16 01:48:21;;;;;;;36.58;22.13;;;9.60;99.90;;;;;;5200455;28;20044;-79
2022/03/16 01:50:54;;;;;;;34.63;21.23;;;9.60;99.90;;;;;;5192529;28;20041;-80
2022/03/16 01:53:27;;;;;;;42.47;23.63;;;9.60;99.90;;;;;;5202373;28;20884;-79
2022/03/16 01:55:59;;;;;;;42.40;23.17;;;9.60;99.90;;;;;;5196550;28;20050;-79
2022/03/16 01:58:32;;;;;;;35.88;21.90;;;9.60;99.90;;;;;;5186415;28;20051;-78
2022/03/16 02:01:06;;;;;;;39.38;23.48;;;9.60;99.90;;;;;;5194926;28;20063;-80
2022/03/16 02:03:39;;;;;;;40.13;24.63;;;9.60;99.90;;;;;;5190132;28;20061;-79
2022/03/16 02:06:11;;;;;;;35.40;21.63;;;9.60;99.90;;;;;;5207574;28;20041;-79
2022/03/16 02:08:45;;;;;;;39.38;22.63;;;9.60;99.90;;;;;;5207994;28;20041;-80
2022/03/16 02:11:17;;;;;;;39.50;23.98;;;9.60;99.90;;;;;;5213711;28;20065;-78
2022/03/16 02:13:49;;;;;;;37.45;23.77;;;9.60;99.90;;;;;;5205397;28;20037;-79
2022/03/16 02:16:22;;;;;;;40.30;24.70;;;9.60;99.90;;;;;;5202404;28;20531;-79
2022/03/16 02:18:54;;;;;;;43.73;25.70;;;9.50;99.90;;;;;;5205028;28;20497;-79
2022/03/16 02:21:37;;;;;;;37.75;23.25;;;9.50;99.90;;;;;;5208152;28;20056;-79
2022/03/16 02:24:10;;;;;;;34.63;22.85;;;9.50;99.90;;;;;;5201771;28;20492;-79
2022/03/16 02:26:42;;;;;;;39.13;24.45;;;9.50;99.90;;;;;;5207562;28;20535;-78
2022/03/16 02:29:14;;;;;;;37.58;23.65;;;9.50;99.90;;;;;;5211329;28;20610;-78
2022/03/16 02:31:47;;;;;;;36.75;22.30;;;9.60;99.90;;;;;;5195014;28;20045;-78
2022/03/16 02:34:19;;;;;;;40.28;25.63;;;9.50;99.90;;;;;;5194191;28;20068;-79
2022/03/16 02:36:51;;;;;;;40.90;24.35;;;9.50;99.90;;;;;;5205006;28;20045;-79
2022/03/16 02:39:24;;;;;;;40.40;25.80;;;9.50;99.90;;;;;;5207479;28;20045;-78
2022/03/16 02:41:56;;;;;;;43.83;25.23;;;9.50;99.90;;;;;;5210422;28;20056;-79
2022/03/16 02:44:29;;;;;;;41.92;24.98;;;9.50;99.90;;;;;;5205237;28;20108;-79
2022/03/16 02:47:02;;;;;;;40.80;25.47;;;9.40;99.90;;;;;;5215818;28;21285;-79
2022/03/16 02:49:34;;;;;;;45.47;28.02;;;9.40;99.90;;;;;;5210111;28;20133;-79
2022/03/16 02:52:08;;;;;;;47.03;26.77;;;9.40;99.90;;;;;;5208788;28;20623;-80
2022/03/16 02:54:40;;;;;;;43.90;25.55;;;9.40;99.90;;;;;;5187779;28;20056;-79
2022/03/16 02:57:16;;;;;;;43.13;27.00;;;9.40;99.90;;;;;;5221234;28;20408;-78
2022/03/16 02:59:48;;;;;;;45.25;27.23;;;9.40;99.90;;;;;;5210030;28;20063;-78
2022/03/16 03:02:20;;;;;;;47.72;28.13;;;9.40;99.90;;;;;;5207357;28;20049;-80
2022/03/16 03:04:53;;;;;;;46.70;27.13;;;9.40;99.90;;;;;;5209780;28;20053;-78
2022/03/16 03:07:25;;;;;;;55.20;31.63;;;9.40;99.90;;;;;;5223561;28;20073;-79
2022/03/16 03:09:58;;;;;;;54.78;30.08;;;9.30;99.90;;;;;;5210343;28;20513;-79
2022/03/16 03:12:34;;;;;;;56.47;31.88;;;9.30;99.90;;;;;;5199539;28;20050;-78
2022/03/16 03:15:12;;;;;;;57.85;31.45;;;9.20;99.90;;;;;;5208295;28;20131;-77
2022/03/16 03:17:46;;;;;;;57.17;31.60;;;9.20;99.90;;;;;;5185203;28;20053;-79
2022/03/16 03:20:19;;;;;;;61.58;33.65;;;9.20;99.90;;;;;;5208656;28;20041;-78
2022/03/16 03:22:52;;;;;;;60.45;32.22;;;9.20;99.90;;;;;;5195764;28;20049;-77
2022/03/16 03:25:24;;;;;;;54.90;30.85;;;9.10;99.90;;;;;;5205846;28;20045;-78
2022/03/16 03:27:56;;;;;;;64.55;34.65;;;9.10;99.90;;;;;;5204410;28;20045;-78
2022/03/16 03:30:29;;;;;;;67.15;35.03;;;9.10;99.90;;;;;;5207802;28;20060;-78
2022/03/16 03:33:01;;;;;;;66.35;35.33;;;9.00;99.90;;;;;;5202987;28;20680;-79
2022/03/16 03:35:34;;;;;;;64.70;33.15;;;8.90;99.90;;;;;;5210154;28;20634;-78
2022/03/16 03:38:06;;;;;;;59.90;32.03;;;8.90;99.90;;;;;;5208953;28;20775;-80
2022/03/16 03:40:38;;;;;;;70.53;34.83;;;8.90;99.90;;;;;;5208388;28;20056;-79
2022/03/16 03:43:11;;;;;;;66.65;31.30;;;8.90;99.90;;;;;;5191066;28;20045;-80
2022/03/16 03:45:43;;;;;;;64.05;32.78;;;8.80;99.90;;;;;;5206305;28;20053;-79
2022/03/16 03:48:15;;;;;;;63.90;32.33;;;8.80;99.90;;;;;;5213615;28;20088;-78
2022/03/16 03:50:48;;;;;;;66.18;34.20;;;8.80;99.90;;;;;;5204770;28;20493;-79
2022/03/16 03:53:20;;;;;;;82.47;35.65;;;8.80;99.90;;;;;;5205511;28;20056;-80
2022/03/16 03:55:52;;;;;;;70.97;33.75;;;8.80;99.90;;;;;;5206780;28;20045;-79
2022/03/16 03:58:25;;;;;;;71.28;36.17;;;8.70;99.90;;;;;;5203877;28;20055;-79
2022/03/16 04:00:57;;;;;;;75.05;36.13;;;8.70;99.90;;;;;;5207237;28;20053;-79
2022/03/16 04:03:30;;;;;;;69.35;35.30;;;8.70;99.90;;;;;;5201672;28;20057;-77
2022/03/16 04:06:03;;;;;;;68.97;35.13;;;8.70;99.90;;;;;;5181798;28;20046;-80
2022/03/16 04:08:36;;;;;;;72.82;36.17;;;8.70;99.90;;;;;;5199898;28;20046;-79
2022/03/16 04:11:09;;;;;;;66.07;33.42;;;8.70;99.90;;;;;;5202401;28;20047;-78
2022/03/16 04:13:41;;;;;;;84.90;39.15;;;8.70;99.90;;;;;;5208490;28;20052;-79
2022/03/16 04:16:13;;;;;;;67.28;34.13;;;8.70;99.90;;;;;;5221710;28;20036;-79
2022/03/16 04:18:46;;;;;;;60.22;31.45;;;8.70;99.90;;;;;;5196507;28;20567;-79
2022/03/16 04:21:18;;;;;;;59.15;31.52;;;8.70;99.90;;;;;;5206439;28;20053;-78
2022/03/16 04:23:51;;;;;;;60.90;32.03;;;8.60;99.90;;;;;;5206341;28;20053;-81
2022/03/16 04:26:23;;;;;;;49.28;27.10;;;8.60;99.90;;;;;;5192809;28;20056;-79
2022/03/16 04:28:56;;;;;;;46.53;26.55;;;8.60;99.90;;;;;;5201482;28;20068;-78
2022/03/16 04:31:28;;;;;;;64.03;29.88;;;8.60;99.90;;;;;;5209431;28;20045;-79
2022/03/16 04:34:01;;;;;;;48.03;27.80;;;8.50;99.90;;;;;;5203614;28;20057;-80
2022/03/16 04:36:33;;;;;;;46.13;25.38;;;8.50;99.90;;;;;;5202997;28;20045;-79
2022/03/16 04:39:05;;;;;;;41.95;23.95;;;8.40;99.90;;;;;;5204632;28;20654;-78
2022/03/16 04:41:38;;;;;;;47.95;25.48;;;8.40;99.90;;;;;;5183173;28;20524;-78
2022/03/16 04:44:10;;;;;;;50.45;28.17;;;8.40;99.90;;;;;;5196925;28;20057;-77
2022/03/16 04:46:43;;;;;;;43.85;24.80;;;8.40;99.90;;;;;;5201093;28;20037;-77
2022/03/16 04:49:15;;;;;;;52.47;26.58;;;8.30;99.90;;;;;;5184616;28;20044;-77
2022/03/16 04:51:48;;;;;;;42.50;23.73;;;8.30;99.90;;;;;;5200488;28;20044;-79
2022/03/16 04:54:20;;;;;;;54.45;26.35;;;8.30;99.90;;;;;;5196295;28;20054;-80
2022/03/16 04:56:52;;;;;;;62.40;27.77;;;8.20;99.90;;;;;;5202202;28;20064;-79
2022/03/16 04:59:25;;;;;;;55.35;28.58;;;8.10;99.90;;;;;;5205531;28;20044;-78
2022/03/16 05:01:57;;;;;;;62.55;29.40;;;8.00;99.90;;;;;;5197660;28;20133;-78
2022/03/16 05:04:29;;;;;;;60.63;30.25;;;7.90;99.90;;;;;;5201860;28;20053;-78
2022/03/16 05:07:03;;;;;;;59.85;31.23;;;7.70;99.90;;;;;;5188844;28;20045;-79
2022/03/16 05:09:35;;;;;;;62.88;33.28;;;7.60;99.90;;;;;;5190776;28;20052;-79
2022/03/16 05:12:08;;;;;;;61.17;31.38;;;7.60;99.90;;;;;;5182241;28;20496;-77
2022/03/16 05:14:40;;;;;;;60.08;32.05;;;7.60;99.90;;;;;;5194591;28;20056;-78
2022/03/16 05:17:13;;;;;;;62.80;32.75;;;7.50;99.90;;;;;;5191610;28;20330;-77
2022/03/16 05:19:51;;;;;;;64.28;32.47;;;7.50;99.90;;;;;;5186362;28;20707;-77
2022/03/16 05:22:24;;;;;;;66.40;32.83;;;7.40;99.90;;;;;;5191213;28;20420;-76
2022/03/16 05:24:56;;;;;;;73.13;34.20;;;7.40;99.90;;;;;;5200271;28;20291;-76
2022/03/16 05:27:29;;;;;;;68.20;34.55;;;7.40;99.90;;;;;;5198737;28;20057;-77
2022/03/16 05:30:01;;;;;;;81.22;34.42;;;7.30;99.90;;;;;;5186351;28;20256;-76
2022/03/16 05:32:34;;;;;;;63.83;32.65;;;7.30;99.90;;;;;;5197874;28;20045;-77
2022/03/16 05:35:11;;;;;;;72.20;35.83;;;7.30;99.90;;;;;;5187667;28;20045;-77
2022/03/16 05:37:43;;;;;;;70.75;35.72;;;7.20;99.90;;;;;;5191077;28;20630;-76
2022/03/16 05:40:16;;;;;;;65.20;33.83;;;7.20;99.90;;;;;;5189324;28;20060;-77
2022/03/16 05:42:49;;;;;;;68.13;34.28;;;7.10;99.90;;;;;;5196489;28;20056;-77
2022/03/16 05:45:26;;;;;;;68.22;35.08;;;7.10;99.90;;;;;;5190391;28;20057;-77
2022/03/16 05:47:58;;;;;;;69.45;35.75;;;7.10;99.90;;;;;;5198710;28;20059;-77
2022/03/16 05:50:31;;;;;;;75.50;36.00;;;7.10;99.90;;;;;;5191617;28;20499;-77
2022/03/16 05:53:03;;;;;;;73.15;34.47;;;6.90;99.90;;;;;;5174905;28;20045;-76
2022/03/16 05:55:36;;;;;;;78.07;36.35;;;6.90;99.90;;;;;;5177280;28;20041;-75
2022/03/16 05:58:08;;;;;;;80.25;36.55;;;6.90;99.90;;;;;;5175003;28;20046;-76
2022/03/16 06:00:42;;;;;;;72.75;36.35;;;6.90;99.90;;;;;;5171601;28;20064;-77
2022/03/16 06:03:15;;;;;;;64.57;32.47;;;6.90;99.90;;;;;;5179955;28;20049;-77
2022/03/16 06:05:47;;;;;;;85.47;38.35;;;6.90;99.90;;;;;;5173325;28;20956;-75
2022/03/16 06:08:20;;;;;;;79.18;35.85;;;6.90;99.90;;;;;;5172230;28;20056;-76
2022/03/16 06:10:52;;;;;;;77.30;37.67;;;6.80;99.90;;;;;;5166674;28;20052;-76
2022/03/16 06:13:25;;;;;;;79.22;37.53;;;6.80;99.90;;;;;;5175896;28;20048;-76
2022/03/16 06:15:58;;;;;;;74.90;36.97;;;6.90;99.90;;;;;;5194359;28;20052;-76
2022/03/16 06:18:30;;;;;;;68.85;35.70;;;6.90;99.90;;;;;;5189971;28;20068;-77
2022/03/16 06:21:03;;;;;;;72.32;35.38;;;7.00;99.90;;;;;;5190124;28;20053;-76
2022/03/16 06:23:35;;;;;;;83.28;38.10;;;7.00;99.90;;;;;;5190597;28;20057;-76
2022/03/16 06:26:09;;;;;;;83.43;37.63;;;7.00;99.90;;;;;;5184991;28;20052;-77
2022/03/16 06:28:41;;;;;;;77.07;37.70;;;7.00;99.90;;;;;;5175126;28;20068;-76
2022/03/16 06:31:13;;;;;;;68.78;33.70;;;7.10;99.90;;;;;;5199707;28;21375;-76
2022/03/16 06:33:46;;;;;;;74.93;35.40;;;7.10;99.90;;;;;;5187791;28;20053;-76
2022/03/16 06:36:18;;;;;;;76.53;35.72;;;7.10;99.90;;;;;;5196268;28;20059;-76
2022/03/16 06:39:04;;;;;;;71.57;37.10;;;7.10;99.90;;;;;;4508633;28;10000369;-76
2022/03/16 06:41:37;;;;;;;77.30;38.15;;;7.10;99.90;;;;;;5206300;28;20041;-77
2022/03/16 06:44:10;;;;;;;71.32;35.15;;;7.10;99.90;;;;;;5199195;28;20056;-77
2022/03/16 06:46:42;;;;;;;68.97;36.60;;;7.10;99.90;;;;;;5195184;28;20045;-76
2022/03/16 06:49:15;;;;;;;77.30;36.08;;;7.10;99.90;;;;;;5194386;28;20053;-77
2022/03/16 06:51:47;;;;;;;77.13;37.22;;;7.10;99.90;;;;;;5199157;28;20420;-77
2022/03/16 06:54:19;;;;;;;73.65;36.53;;;7.10;99.90;;;;;;5199469;28;20412;-77
2022/03/16 06:56:52;;;;;;;70.57;35.95;;;7.10;99.90;;;;;;5182616;28;20049;-77
2022/03/16 06:59:24;;;;;;;71.65;36.75;;;7.10;99.90;;;;;;5189032;28;20037;-77
2022/03/16 07:01:57;;;;;;;75.70;38.53;;;7.20;99.90;;;;;;5194842;28;20052;-76
2022/03/16 07:04:30;;;;;;;64.68;35.10;;;7.20;99.90;;;;;;5197930;28;20054;-76
2022/03/16 07:07:03;;;;;;;72.78;36.85;;;7.30;99.90;;;;;;5188193;28;20693;-77
2022/03/16 07:09:36;;;;;;;75.97;38.17;;;7.30;99.90;;;;;;5190920;28;20040;-76
2022/03/16 07:12:09;;;;;;;70.60;36.72;;;7.30;99.90;;;;;;5192574;28;20042;-76
2022/03/16 07:14:41;;;;;;;75.53;37.85;;;7.40;99.90;;;;;;5200335;28;20049;-77
2022/03/16 07:17:14;;;;;;;66.53;34.75;;;7.40;99.90;;;;;;5188501;28;20045;-76
2022/03/16 07:19:47;;;;;;;76.18;37.95;;;7.40;99.90;;;;;;5188084;28;20059;-75
2022/03/16 07:22:21;;;;;;;75.22;36.38;;;7.30;99.90;;;;;;5182885;28;21323;-76
2022/03/16 07:25:13;;;;;;;66.15;34.85;;;7.30;99.90;;;;;;5185346;28;20500;-75
2022/03/16 07:27:45;;;;;;;69.90;35.35;;;7.10;99.90;;;;;;5208681;28;20045;-77
2022/03/16 07:30:18;;;;;;;67.65;34.28;;;7.20;99.90;;;;;;5207931;28;20055;-77
2022/03/16 07:32:51;;;;;;;67.10;35.42;;;7.10;99.90;;;;;;5199371;28;20116;-76
2022/03/16 07:35:26;;;;;;;71.00;36.22;;;7.10;99.90;;;;;;5201850;28;20489;-77
2022/03/16 07:38:02;;;;;;;71.55;35.53;;;7.10;99.90;;;;;;5193542;28;20045;-77
2022/03/16 07:40:35;;;;;;;81.53;38.40;;;7.20;99.90;;;;;;5196967;28;20060;-77
2022/03/16 07:43:08;;;;;;;;;;;7.10;99.90;;;;;;5213252;28;20052;-78
2022/03/16 07:45:40;;;;;;;70.60;36.17;;;7.10;99.90;;;;;;5202146;28;19979;-77
2022/03/16 07:48:13;;;;;;;74.07;38.55;;;7.10;99.90;;;;;;5195639;28;20057;-77
2022/03/16 07:50:45;;;;;;;82.40;40.22;;;7.10;99.90;;;;;;5204101;28;20061;-77
2022/03/16 07:53:17;;;;;;;80.53;40.20;;;7.10;99.90;;;;;;5203489;28;20758;-77
2022/03/16 07:55:55;;;;;;;79.45;40.22;;;7.10;99.90;;;;;;5202383;28;20401;-75
2022/03/16 07:58:27;;;;;;;66.95;36.40;;;7.10;99.90;;;;;;5200144;28;20045;-77
2022/03/16 08:01:00;;;;;;;78.57;39.45;;;7.00;99.90;;;;;;5197003;28;20042;-76
2022/03/16 08:03:32;;;;;;;69.53;38.25;;;7.00;99.90;;;;;;5198888;28;20049;-77
2022/03/16 08:06:04;;;;;;;73.60;38.70;;;7.00;99.90;;;;;;5202601;28;20052;-78
2022/03/16 08:08:39;;;;;;;67.13;37.20;;;7.00;99.90;;;;;;5201459;28;20048;-77
2022/03/16 08:11:12;;;;;;;75.63;40.10;;;7.10;99.90;;;;;;5197146;28;20056;-77
2022/03/16 08:13:44;;;;;;;75.50;40.08;;;7.10;99.90;;;;;;5204572;28;20515;-77
2022/03/16 08:16:16;;;;;;;66.95;37.00;;;7.10;99.90;;;;;;5199899;28;20052;-77
2022/03/16 08:18:49;;;;;;;66.35;36.78;;;7.10;99.90;;;;;;5192620;28;20120;-76
2022/03/16 08:21:21;;;;;;;65.53;34.40;;;7.10;99.90;;;;;;5192217;28;20049;-76
2022/03/16 08:23:54;;;;;;;70.18;37.03;;;7.00;99.90;;;;;;5196122;28;20052;-75
2022/03/16 08:26:26;;;;;;;63.72;34.50;;;7.00;99.90;;;;;;5187168;28;20053;-77
2022/03/16 08:28:58;;;;;;;67.82;34.95;;;7.10;99.90;;;;;;5189800;28;20064;-77
2022/03/16 08:31:31;;;;;;;57.90;33.88;;;7.10;99.90;;;;;;5206504;28;20521;-76
2022/03/16 08:34:04;;;;;;;62.10;34.42;;;7.20;99.90;;;;;;5193272;28;20046;-78
2022/03/16 08:36:38;;;;;;;59.10;33.80;;;7.20;99.90;;;;;;5209271;28;20041;-77
2022/03/16 08:39:11;;;;;;;58.05;31.65;;;7.30;99.90;;;;;;5206695;28;20044;-77
2022/03/16 08:41:43;;;;;;;61.90;33.20;;;7.20;99.90;;;;;;5199405;28;20055;-77
2022/03/16 08:44:17;;;;;;;60.47;33.33;;;7.30;99.90;;;;;;5205265;28;20048;-77
2022/03/16 08:46:50;;;;;;;59.33;32.90;;;7.30;99.90;;;;;;5204042;28;20622;-76
2022/03/16 08:49:23;;;;;;;57.78;32.20;;;7.20;99.90;;;;;;5206313;28;20416;-77
2022/03/16 08:51:59;;;;;;;55.53;31.98;;;7.30;99.90;;;;;;5205328;28;20044;-76
2022/03/16 08:54:32;;;;;;;62.58;33.20;;;7.30;99.90;;;;;;5207214;28;20060;-77
2022/03/16 08:57:08;;;;;;;57.17;31.92;;;7.30;99.90;;;;;;5207424;28;20050;-77
2022/03/16 08:59:41;;;;;;;59.55;33.70;;;7.30;99.90;;;;;;5192020;28;20045;-77
2022/03/16 09:02:14;;;;;;;60.67;33.33;;;7.30;99.90;;;;;;5198694;28;20610;-77
2022/03/16 09:04:47;;;;;;;58.83;34.10;;;7.30;99.90;;;;;;5202426;28;20041;-77
2022/03/16 09:07:19;;;;;;;61.83;31.67;;;7.30;99.90;;;;;;5202311;28;20054;-77
2022/03/16 09:09:52;;;;;;;64.90;33.17;;;7.30;99.90;;;;;;5191150;28;20053;-77
2022/03/16 09:12:24;;;;;;;64.10;34.97;;;7.30;99.90;;;;;;5197999;28;20492;-77
2022/03/16 09:14:56;;;;;;;61.42;33.78;;;7.30;99.90;;;;;;5201315;28;20053;-77
2022/03/16 09:17:30;;;;;;;65.35;35.08;;;7.30;99.90;;;;;;5198667;28;20064;-81
2022/03/16 09:20:04;;;;;;;65.05;34.78;;;7.30;99.90;;;;;;5200241;28;20045;-78
2022/03/16 09:22:37;;;;;;;60.13;32.58;;;7.30;99.90;;;;;;5187519;28;20230;-76
2022/03/16 09:25:09;;;;;;;67.72;34.63;;;7.30;99.90;;;;;;4515418;28;10000106;-77
2022/03/16 09:27:42;;;;;;;60.88;33.80;;;7.30;99.90;;;;;;5201948;28;20056;-77
2022/03/16 09:30:14;;;;;;;64.10;33.45;;;7.30;99.90;;;;;;5205439;28;20037;-77
2022/03/16 09:32:47;;;;;;;62.75;34.80;;;7.30;99.90;;;;;;5219354;28;20050;-77
2022/03/16 09:35:19;;;;;;;57.58;32.38;;;7.30;99.90;;;;;;5197086;28;20045;-77
2022/03/16 09:37:53;;;;;;;59.15;32.47;;;7.30;99.90;;;;;;5186090;28;20056;-76
2022/03/16 09:40:26;;;;;;;53.65;30.17;;;7.30;99.90;;;;;;5189882;28;20037;-76
2022/03/16 09:42:59;;;;;;;58.70;32.20;;;7.40;99.90;;;;;;5194835;28;20052;-75
2022/03/16 09:45:47;;;;;;;54.53;29.90;;;7.50;99.90;;;;;;5195448;28;20052;-76
2022/03/16 09:48:26;;;;;;;55.63;31.45;;;7.50;99.90;;;;;;5192142;28;20048;-76
2022/03/16 09:50:59;;;;;;;52.63;29.75;;;7.50;99.90;;;;;;5196173;28;20033;-77
2022/03/16 09:53:32;;;;;;;53.87;31.57;;;7.50;99.90;;;;;;5199932;28;20050;-77
2022/03/16 09:56:05;;;;;;;56.45;31.95;;;7.50;99.90;;;;;;5199729;28;20049;-77
2022/03/16 09:58:38;;;;;;;54.67;31.63;;;7.50;99.90;;;;;;5202372;28;20045;-78
2022/03/16 10:01:10;;;;;;;54.20;30.27;;;7.50;99.90;;;;;;5209157;28;20053;-78
2022/03/16 10:03:48;;;;;;;59.00;31.25;;;7.50;99.90;;;;;;5198712;28;20622;-77
2022/03/16 10:06:24;;;;;;;53.95;30.95;;;7.50;99.90;;;;;;5207448;28;20064;-77
2022/03/16 10:14:38;;;;;;;63.88;32.58;;;7.50;99.90;;;;;;5203770;28;20072;-76
2022/03/16 10:20:04;;;;;;;62.58;35.05;;;7.60;99.90;;;;;;5212967;28;20044;-77
2022/03/16 10:22:38;;;;;;;65.88;33.40;;;7.40;99.90;;;;;;5194124;28;20049;-75
2022/03/16 10:25:10;;;;;;;63.50;34.03;;;7.40;99.90;;;;;;5201172;28;20049;-76
2022/03/16 10:27:43;;;;;;;60.88;35.00;;;7.40;99.90;;;;;;5200341;28;20045;-77
2022/03/16 10:30:16;;;;;;;66.28;33.65;;;7.40;99.90;;;;;;5203799;28;20517;-75
2022/03/16 10:32:53;;;;;;;71.82;34.95;;;7.50;99.90;;;;;;5198961;28;20052;-77
2022/03/16 10:35:25;;;;;;;67.78;35.83;;;7.50;99.90;;;;;;5207392;28;20052;-76
2022/03/16 10:38:10;;;;;;;63.40;33.73;;;7.50;99.90;;;;;;5204078;28;20056;-76
2022/03/16 10:40:42;;;;;;;63.13;33.42;;;7.50;99.90;;;;;;5197384;28;20975;-76
2022/03/16 10:46:55;;;;;;;63.85;33.03;;;7.60;99.90;;;;;;5196703;28;20032;-76
2022/03/16 10:49:10;;;;;;;59.92;32.70;;;7.60;99.90;;;;;;5194767;28;20507;-76
2022/03/16 10:51:46;;;;;;;58.00;32.08;;;7.60;99.90;;;;;;5200228;28;20050;-76
2022/03/16 10:54:29;;;;;;;56.58;30.85;;;7.60;99.90;;;;;;5199453;28;20056;-77
2022/03/16 10:57:06;;;;;;;57.55;30.77;;;7.60;99.90;;;;;;5182302;28;20044;-77
2022/03/16 10:59:43;;;;;;;51.17;29.05;;;7.60;99.90;;;;;;5197857;28;20060;-76
2022/03/16 11:02:17;;;;;;;49.75;28.35;;;7.60;99.90;;;;;;5190684;28;20049;-75
2022/03/16 11:04:50;;;;;;;49.22;28.77;;;7.60;99.90;;;;;;5192725;28;20037;-75
2022/03/16 11:07:25;;;;;;;50.95;28.67;;;7.60;99.90;;;;;;5201674;28;20045;-76
2022/03/16 11:09:58;;;;;;;51.42;29.25;;;7.70;99.90;;;;;;5200525;28;20056;-77
2022/03/16 11:15:23;;;;;;;50.58;29.15;;;7.80;99.90;;;;;;5201442;28;20049;-77
2022/03/16 11:17:55;;;;;;;46.63;26.85;;;7.90;99.90;;;;;;5199393;28;20770;-77
2022/03/16 11:20:32;;;;;;;47.80;28.58;;;8.00;99.90;;;;;;5198087;28;20056;-76
2022/03/16 11:26:11;;;;;;;44.53;27.47;;;8.10;99.90;;;;;;5198440;28;20423;-77
2022/03/16 11:29:17;;;;;;;46.55;27.25;;;8.20;99.90;;;;;;5199072;28;20061;-77
2022/03/16 11:31:49;;;;;;;45.78;25.48;;;8.20;99.90;;;;;;5202141;28;20053;-75
2022/03/16 11:34:23;;;;;;;52.58;27.88;;;8.20;99.90;;;;;;5201070;28;20060;-77
2022/03/16 11:37:10;;;;;;;50.00;27.95;;;8.30;99.90;;;;;;5199009;28;20045;-76
2022/03/16 11:39:47;;;;;;;51.97;29.92;;;8.30;99.90;;;;;;5214698;28;20045;-83
2022/03/16 11:42:27;;;;;;;45.38;27.33;;;8.40;99.90;;;;;;5189415;28;20052;-76
2022/03/16 11:45:33;;;;;;;45.90;27.02;;;8.50;99.90;;;;;;5194426;28;20964;-75
2022/03/16 11:48:31;;;;;;;49.15;28.30;;;8.40;99.90;;;;;;5197678;28;20587;-76
2022/03/16 11:51:13;;;;;;;53.03;30.13;;;8.50;99.90;;;;;;5186211;28;20049;-76
2022/03/16 11:53:49;;;;;;;47.60;27.42;;;8.40;99.90;;;;;;5192863;28;20095;-76
2022/03/16 11:56:40;;;;;;;54.78;30.50;;;8.40;99.90;;;;;;5200175;28;20044;-78
2022/03/16 11:59:19;;;;;;;49.80;28.42;;;8.40;99.90;;;;;;5201815;28;20043;-77
2022/03/16 12:02:01;;;;;;;44.15;26.40;;;8.50;99.90;;;;;;5202233;28;20045;-76
2022/03/16 12:04:38;;;;;;;45.67;28.17;;;8.50;99.90;;;;;;5203992;28;20580;-76
2022/03/16 12:07:22;;;;;;;46.92;27.08;;;8.50;99.90;;;;;;5198679;28;20465;-76
2022/03/16 12:09:54;;;;;;;45.67;26.92;;;8.60;99.90;;;;;;5197542;28;20575;-76
2022/03/16 12:15:28;;;;;;;44.53;27.15;;;8.70;99.90;;;;;;5194160;28;20382;-77
2022/03/16 12:18:00;;;;;;;46.78;27.27;;;8.80;99.90;;;;;;5199248;28;20155;-76
2022/03/16 12:20:40;;;;;;;48.00;28.25;;;8.90;99.90;;;;;;5194198;28;20060;-78
2022/03/16 12:23:18;;;;;;;45.03;26.80;;;9.00;99.90;;;;;;5165578;28;20060;-80
2022/03/16 12:25:50;;;;;;;43.45;26.23;;;9.20;99.90;;;;;;5172131;28;20041;-79
2022/03/16 12:31:18;;;;;;;44.45;26.90;;;9.40;99.90;;;;;;5179464;28;20543;-80
2022/03/16 12:33:53;;;;;;;41.58;25.15;;;9.50;99.90;;;;;;5183010;28;20056;-80
2022/03/16 12:36:31;;;;;;;42.72;25.75;;;9.60;99.90;;;;;;5186468;28;20046;-80
2022/03/16 12:39:10;;;;;;;41.00;26.17;;;9.60;99.90;;;;;;5180964;28;20048;-78
2022/03/16 12:44:42;;;;;;;42.92;26.77;;;9.70;99.90;;;;;;5190105;28;21537;-81
2022/03/16 12:47:25;;;;;;;42.30;26.08;;;9.70;99.90;;;;;;5189057;28;20883;-81
2022/03/16 12:54:40;;;;;;;43.72;25.55;;;9.60;99.90;;;;;;5146938;28;20046;-79
2022/03/16 12:57:15;;;;;;;38.58;23.63;;;9.60;99.90;;;;;;5111233;28;20583;-79
2022/03/16 12:59:52;;;;;;;39.70;23.33;;;9.50;99.90;;;;;;5176431;28;20061;-80
2022/03/16 13:02:28;;;;;;;43.83;25.00;;;9.50;99.90;;;;;;5181724;28;20060;-80
2022/03/16 13:05:01;;;;;;;39.00;23.52;;;9.40;99.90;;;;;;5199679;28;21994;-80
2022/03/16 13:07:36;;;;;;;37.10;23.15;;;9.40;99.90;;;;;;5180724;28;20060;-81
2022/03/16 13:10:09;;;;;;;39.72;23.33;;;9.40;99.90;;;;;;5174825;28;20052;-81
2022/03/16 13:12:56;;;;;;;37.63;23.40;;;9.50;99.90;;;;;;5172289;28;20056;-79
2022/03/16 13:15:29;;;;;;;39.25;22.23;;;9.70;99.90;;;;;;5188833;28;20049;-81
2022/03/16 13:18:01;;;;;;;35.75;21.88;;;9.80;99.90;;;;;;5179242;28;20389;-80
2022/03/16 13:20:34;;;;;;;30.75;19.13;;;9.90;99.90;;;;;;5197104;28;20115;-80
2022/03/16 13:23:06;;;;;;;31.52;19.77;;;10.00;99.90;;;;;;5178601;28;20412;-80
2022/03/16 13:25:41;;;;;;;32.95;19.38;;;10.00;99.90;;;;;;5198855;28;20428;-82
2022/03/16 13:28:20;;;;;;;30.20;19.92;;;10.10;99.90;;;;;;5192886;28;20044;-82
2022/03/16 13:34:47;;;;;;;38.75;21.92;;;10.20;99.90;;;;;;5073340;28;20524;-57
2022/03/16 13:37:28;;;;;;;33.58;22.00;;;10.10;99.90;;;;;;5079624;28;20933;-55
2022/03/16 13:40:07;;;;;;;35.50;23.27;;;10.20;99.90;;;;;;5080702;28;20063;-54
2022/03/16 13:42:41;;;;;;;37.25;23.38;;;10.20;99.00;;;;;;5064969;28;20480;-54
2022/03/16 13:45:16;;;;;;;38.38;23.05;;;10.20;99.30;;;;;;5056961;28;20039;-55